Time;durP1;ratioP1;P1;durP2;ratioP2;P2;SDS_P1;SDS_P2;PMS_P1;PMS_P2;Temp;Humidity;BMP_temperature;BMP_pressure;BME280_temperature;BME280_humidity;BME280_pressure;Samples;Min_cycle;Max_cycle;Signal;HPM_P1;HPM_P2
2023/09/16 00:03:57;;;;;;;6.30;4.00;;;;;;;12.26;80.22;99286.02;226089;1278;138140;-74
2023/09/16 00:09:00;;;;;;;4.70;3.90;;;;;;;12.25;80.12;99284.55;226041;1277;138212;-73
2023/09/16 00:14:02;;;;;;;5.90;4.10;;;;;;;12.23;80.21;99284.59;225979;1280;22554;-74
2023/09/16 00:19:04;;;;;;;5.70;3.90;;;;;;;12.22;80.17;99281.35;226001;1276;137712;-74
2023/09/16 00:24:09;;;;;;;5.40;4.00;;;;;;;12.14;80.13;99275.82;225865;1280;137977;-74
2023/09/16 00:29:11;;;;;;;5.40;4.20;;;;;;;12.08;80.30;99272.98;225976;1273;138230;-74
2023/09/16 00:34:13;;;;;;;6.60;4.60;;;;;;;12.05;80.35;99268.67;226047;1279;138244;-73
2023/09/16 00:39:15;;;;;;;7.40;4.30;;;;;;;11.99;80.54;99269.75;225891;1279;138209;-73
2023/09/16 00:44:17;;;;;;;5.20;3.90;;;;;;;11.93;80.62;99266.73;226125;1276;22572;-74
2023/09/16 00:49:19;;;;;;;6.80;4.50;;;;;;;11.89;81.00;99270.71;225826;1280;137772;-73
2023/09/16 00:54:21;;;;;;;6.40;4.30;;;;;;;11.88;80.99;99268.21;225972;1280;137838;-74
2023/09/16 00:59:25;;;;;;;5.30;3.80;;;;;;;11.84;81.20;99267.86;225933;1280;138930;-73
2023/09/16 01:04:27;;;;;;;5.60;3.90;;;;;;;11.85;81.49;99271.95;225951;1273;138049;-73
2023/09/16 01:09:29;;;;;;;5.30;3.90;;;;;;;11.86;81.50;99268.63;225852;1277;138248;-73
2023/09/16 01:14:33;;;;;;;6.40;4.10;;;;;;;11.83;81.63;99269.84;225981;1278;139065;-73
2023/09/16 01:19:58;;;;;;;6.80;4.50;;;;;;;11.83;81.68;99265.84;225963;1280;22536;-73
2023/09/16 01:25:06;;;;;;;5.90;4.10;;;;;;;11.84;81.82;99259.75;225993;1276;137751;-74
2023/09/16 01:30:09;;;;;;;6.30;3.90;;;;;;;11.82;81.94;99260.98;225937;1279;138137;-74
2023/09/16 01:35:14;;;;;;;5.80;4.10;;;;;;;11.79;81.90;99255.48;225960;1280;138030;-73
2023/09/16 01:40:22;;;;;;;6.50;4.40;;;;;;;11.73;82.01;99257.60;225706;1276;291810;-74
2023/09/16 01:45:24;;;;;;;6.40;4.40;;;;;;;11.72;82.23;99262.04;225844;1265;138190;-74
2023/09/16 01:50:25;;;;;;;5.80;4.00;;;;;;;11.67;82.07;99264.86;226108;1276;22527;-74
2023/09/16 01:55:30;;;;;;;6.70;4.30;;;;;;;11.64;82.21;99267.88;225937;1279;24266;-74
2023/09/16 02:00:32;;;;;;;7.70;4.50;;;;;;;11.59;82.25;99268.98;225906;1276;137911;-74
2023/09/16 02:05:34;;;;;;;6.50;4.00;;;;;;;11.52;82.33;99270.66;226003;1276;138163;-75
2023/09/16 02:10:36;;;;;;;6.30;3.90;;;;;;;11.47;82.47;99266.77;225872;1277;138166;-74
2023/09/16 02:15:38;;;;;;;6.20;4.20;;;;;;;11.39;82.46;99260.45;226026;1275;138208;-74
2023/09/16 02:20:41;;;;;;;5.30;4.10;;;;;;;11.32;82.57;99258.75;225994;1276;139050;-74
2023/09/16 02:25:42;;;;;;;6.10;4.10;;;;;;;11.27;82.78;99254.56;226071;1276;22535;-74
2023/09/16 02:30:48;;;;;;;6.60;4.50;;;;;;;11.24;82.97;99258.75;225953;1273;137847;-73
2023/09/16 02:35:50;;;;;;;5.60;4.10;;;;;;;11.22;83.09;99256.52;225968;1272;138343;-74
2023/09/16 02:40:52;;;;;;;7.90;4.10;;;;;;;11.21;83.40;99258.34;225921;1276;138087;-74
2023/09/16 02:45:56;;;;;;;4.80;4.30;;;;;;;11.21;83.29;99260.83;225923;1280;138946;-74
2023/09/16 02:50:58;;;;;;;6.20;4.10;;;;;;;11.17;83.20;99261.81;225977;1272;138047;-73
2023/09/16 02:56:00;;;;;;;5.80;4.10;;;;;;;11.16;83.55;99265.48;225984;1275;25308;-73
2023/09/16 03:01:11;;;;;;;6.20;4.40;;;;;;;11.13;83.38;99265.90;225908;1272;137857;-74
2023/09/16 03:06:15;;;;;;;6.00;4.20;;;;;;;11.09;83.40;99264.02;225894;1277;138067;-73
2023/09/16 03:11:17;;;;;;;7.60;4.40;;;;;;;11.09;83.70;99261.17;225852;1275;138406;-73
2023/09/16 03:16:23;;;;;;;10.00;4.50;;;;;;;11.07;83.85;99261.80;225920;1272;138164;-73
2023/09/16 03:21:28;;;;;;;7.30;4.80;;;;;;;11.06;83.94;99262.25;225855;1279;139528;-74
2023/09/16 03:26:36;;;;;;;6.90;4.30;;;;;;;11.04;83.99;99260.15;225899;1279;138042;-74
2023/09/16 03:31:38;;;;;;;6.20;4.30;;;;;;;10.99;83.85;99254.27;225931;1275;25276;-74
2023/09/16 03:36:45;;;;;;;7.00;4.30;;;;;;;10.95;84.01;99256.67;225928;1275;138263;-74
2023/09/16 03:41:47;;;;;;;8.10;4.20;;;;;;;10.88;83.95;99250.80;225802;1277;138458;-74
2023/09/16 03:46:49;;;;;;;7.30;4.60;;;;;;;10.81;84.02;99248.91;225881;1278;138478;-74
2023/09/16 03:51:51;;;;;;;7.10;4.40;;;;;;;10.75;84.20;99245.79;225813;1274;138009;-74
2023/09/16 03:56:53;;;;;;;6.30;4.70;;;;;;;10.71;84.35;99243.41;225900;1275;138115;-74
2023/09/16 04:01:55;;;;;;;7.20;4.40;;;;;;;10.69;84.35;99249.38;225992;1272;22541;-74
2023/09/16 04:06:58;;;;;;;6.00;4.20;;;;;;;10.67;84.79;99251.65;225841;1276;138056;-74
2023/09/16 04:12:02;;;;;;;4.30;3.90;;;;;;;10.70;85.00;99248.48;225827;1278;137819;-74
2023/09/16 04:17:04;;;;;;;6.40;4.40;;;;;;;10.68;84.85;99247.67;225912;1279;138021;-73
2023/09/16 04:22:06;;;;;;;7.50;5.00;;;;;;;10.66;84.90;99246.99;225842;1275;138057;-75
2023/09/16 04:27:08;;;;;;;5.60;4.30;;;;;;;10.66;84.87;99245.31;225760;1278;138182;-73
2023/09/16 04:32:11;;;;;;;6.00;4.80;;;;;;;10.67;85.24;99244.89;226068;1275;25424;-74
2023/09/16 04:37:14;;;;;;;7.40;4.90;;;;;;;10.69;85.52;99247.23;225930;1279;137942;-75
2023/09/16 04:42:16;;;;;;;7.60;5.20;;;;;;;10.73;85.46;99244.38;225917;1275;138835;-73
2023/09/16 04:47:18;;;;;;;5.90;4.80;;;;;;;10.81;85.55;99246.75;225895;1276;138050;-74
2023/09/16 04:52:23;;;;;;;7.80;5.60;;;;;;;10.90;85.75;99246.61;225945;1280;138134;-74
2023/09/16 04:57:25;;;;;;;6.00;4.80;;;;;;;11.01;85.81;99245.73;225890;1280;138234;-74
2023/09/16 05:02:32;;;;;;;8.40;5.60;;;;;;;11.10;85.69;99245.79;225851;1279;138146;-74
2023/09/16 05:07:35;;;;;;;7.40;5.10;;;;;;;11.19;85.77;99245.20;226070;1276;22606;-74
2023/09/16 05:12:37;;;;;;;6.80;5.20;;;;;;;11.28;85.69;99242.33;225949;1273;137952;-74
2023/09/16 05:17:40;;;;;;;6.50;4.90;;;;;;;11.41;85.68;99245.65;225823;1275;138267;-73
2023/09/16 05:22:47;;;;;;;6.90;5.20;;;;;;;11.51;85.74;99246.02;225844;1280;138107;-73
2023/09/16 05:27:49;;;;;;;5.80;5.10;;;;;;;11.66;85.83;99249.79;225845;1277;138260;-74
2023/09/16 05:32:52;;;;;;;5.90;4.50;;;;;;;11.81;85.74;99249.36;225840;1273;138047;-74
2023/09/16 05:37:54;;;;;;;6.70;5.20;;;;;;;11.94;85.74;99251.55;226054;1262;22568;-73
2023/09/16 05:42:56;;;;;;;5.80;4.90;;;;;;;12.08;85.57;99249.92;225977;1276;137941;-73
2023/09/16 05:48:02;;;;;;;5.30;4.60;;;;;;;12.22;85.42;99254.21;225920;1279;137440;-74
2023/09/16 05:53:12;;;;;;;6.20;5.00;;;;;;;12.37;85.63;99260.48;225908;1275;138083;-75
2023/09/16 05:58:14;;;;;;;6.80;5.10;;;;;;;12.52;85.34;99263.34;225947;1275;138172;-74
2023/09/16 06:03:17;;;;;;;5.10;4.50;;;;;;;12.66;85.07;99260.23;225875;1276;138091;-75
2023/09/16 06:08:19;;;;;;;6.10;5.20;;;;;;;12.85;85.51;99259.30;226103;1272;25397;-74
2023/09/16 06:13:22;;;;;;;6.70;5.60;;;;;;;13.05;85.45;99259.19;225819;1275;138629;-74
2023/09/16 06:18:26;;;;;;;6.20;5.30;;;;;;;13.27;85.26;99252.23;225877;1277;138920;-74
2023/09/16 06:23:29;;;;;;;5.00;4.50;;;;;;;13.50;85.17;99255.97;225808;1275;138028;-74
2023/09/16 06:28:33;;;;;;;7.70;4.90;;;;;;;13.72;84.36;99254.30;225764;1272;138065;-74
2023/09/16 06:33:35;;;;;;;6.00;4.20;;;;;;;13.91;84.10;99257.98;225705;1266;138116;-74
2023/09/16 06:38:38;;;;;;;5.20;4.50;;;;;;;14.09;83.60;99259.17;225544;1279;138065;-74
2023/09/16 06:43:40;;;;;;;5.50;4.80;;;;;;;14.24;83.28;99258.16;225693;1260;22567;-76
2023/09/16 06:48:45;;;;;;;6.60;4.40;;;;;;;14.38;82.69;99253.64;225464;1276;138046;-75
2023/09/16 06:53:47;;;;;;;6.60;4.60;;;;;;;14.54;82.61;99257.54;225683;1272;138781;-75
2023/09/16 06:58:49;;;;;;;5.90;4.30;;;;;;;14.69;81.98;99262.31;225752;1275;138301;-75
2023/09/16 07:03:51;;;;;;;7.50;4.60;;;;;;;14.87;81.65;99265.60;225369;1260;138197;-77
2023/09/16 07:08:53;;;;;;;5.60;4.50;;;;;;;15.06;81.62;99269.42;225684;1272;138452;-77
2023/09/16 07:13:55;;;;;;;6.70;4.40;;;;;;;15.26;81.33;99277.08;225719;1259;22551;-76
2023/09/16 07:18:57;;;;;;;5.90;4.70;;;;;;;15.43;80.80;99279.15;225551;1272;137810;-75
2023/09/16 07:24:01;;;;;;;5.50;4.60;;;;;;;15.62;80.48;99273.08;225466;1280;138049;-76
2023/09/16 07:29:03;;;;;;;8.10;5.30;;;;;;;15.82;80.12;99269.05;225397;1259;138091;-76
2023/09/16 07:34:05;;;;;;;4.50;4.10;;;;;;;15.99;79.66;99270.80;225348;1266;138673;-75
2023/09/16 07:39:07;;;;;;;7.10;4.80;;;;;;;16.12;79.50;99272.06;225350;1275;139029;-74
2023/09/16 07:44:08;;;;;;;8.60;5.50;;;;;;;16.30;79.58;99274.31;225642;1272;22545;-76
2023/09/16 07:49:10;;;;;;;8.80;5.10;;;;;;;16.42;78.82;99269.75;225641;1272;138804;-75
2023/09/16 07:54:15;;;;;;;6.90;4.70;;;;;;;16.51;78.37;99273.34;225677;1264;137960;-74
2023/09/16 07:59:20;;;;;;;5.50;5.00;;;;;;;16.68;78.52;99271.46;225635;1280;138161;-74
2023/09/16 08:04:22;;;;;;;6.70;4.80;;;;;;;16.86;78.23;99270.84;225808;1278;138222;-74
2023/09/16 08:09:24;;;;;;;5.90;4.80;;;;;;;17.04;78.04;99266.77;225780;1275;138061;-74
2023/09/16 08:14:26;;;;;;;5.80;4.00;;;;;;;17.19;77.80;99263.07;225806;1272;24256;-74
2023/09/16 08:19:31;;;;;;;5.00;4.10;;;;;;;17.36;77.35;99257.50;225601;1256;22564;-75
2023/09/16 08:24:36;;;;;;;6.40;4.50;;;;;;;17.53;77.00;99258.07;225607;1273;137854;-74
2023/09/16 08:29:38;;;;;;;6.70;4.40;;;;;;;17.68;76.70;99252.84;225514;1273;138243;-75
2023/09/16 08:34:40;;;;;;;4.80;3.80;;;;;;;17.86;76.61;99255.52;225703;1266;138306;-74
2023/09/16 08:39:42;;;;;;;4.70;4.20;;;;;;;18.06;76.20;99251.59;225676;1278;138098;-74
2023/09/16 08:44:50;;;;;;;5.40;4.20;;;;;;;18.23;75.99;99251.61;225630;1260;138097;-74
2023/09/16 08:49:55;;;;;;;5.30;4.10;;;;;;;18.39;75.41;99250.04;225860;1265;22537;-74
2023/09/16 08:54:58;;;;;;;5.60;3.80;;;;;;;18.56;75.15;99250.80;225714;1259;137829;-73
2023/09/16 09:00:00;;;;;;;5.10;3.50;;;;;;;18.76;75.02;99251.40;225719;1272;138154;-74
2023/09/16 09:05:06;;;;;;;5.00;3.50;;;;;;;18.94;74.56;99245.59;225738;1261;138562;-74
2023/09/16 09:10:12;;;;;;;6.40;3.80;;;;;;;19.13;74.12;99248.24;225601;1264;138091;-74
2023/09/16 09:15:15;;;;;;;6.60;3.70;;;;;;;19.28;73.59;99242.59;225698;1272;138141;-74
2023/09/16 09:20:23;;;;;;;6.20;3.70;;;;;;;19.44;73.56;99244.24;225713;1262;23021;-74
2023/09/16 09:25:27;;;;;;;6.60;3.80;;;;;;;19.57;72.76;99250.84;225548;1256;137616;-75
2023/09/16 09:30:31;;;;;;;4.80;3.50;;;;;;;19.70;72.62;99243.83;225678;1268;138095;-74
2023/09/16 09:35:33;;;;;;;5.40;3.60;;;;;;;19.82;72.37;99238.60;225853;1268;138068;-74
2023/09/16 09:40:35;;;;;;;4.70;3.60;;;;;;;19.98;71.76;99239.31;225719;1275;138899;-74
2023/09/16 09:45:40;;;;;;;4.60;3.60;;;;;;;20.16;71.74;99238.82;225638;1265;139641;-73
2023/09/16 09:50:42;;;;;;;5.40;3.80;;;;;;;20.36;71.73;99233.06;225600;1266;138192;-74
2023/09/16 09:55:44;;;;;;;4.00;3.30;;;;;;;20.56;71.44;99235.79;225791;1268;22539;-74
2023/09/16 10:00:47;;;;;;;4.60;4.20;;;;;;;20.69;70.68;99231.55;225737;1275;137971;-73
2023/09/16 10:05:50;;;;;;;5.30;4.00;;;;;;;20.78;70.32;99223.81;225606;1275;139111;-74
2023/09/16 10:10:54;;;;;;;4.40;3.20;;;;;;;20.88;70.05;99217.47;225804;1268;138405;-74
2023/09/16 10:16:00;;;;;;;5.50;3.70;;;;;;;21.02;70.06;99205.66;225601;1272;137987;-74
2023/09/16 10:21:02;;;;;;;4.50;3.80;;;;;;;21.23;70.07;99198.70;225752;1261;138196;-75
2023/09/16 10:26:04;;;;;;;3.30;3.10;;;;;;;21.45;69.83;99195.68;225910;1256;22545;-74
2023/09/16 10:31:06;;;;;;;4.70;3.70;;;;;;;21.62;69.29;99195.36;225686;1269;137353;-75
2023/09/16 10:36:10;;;;;;;3.80;3.20;;;;;;;21.75;69.05;99191.60;225720;1262;137198;-75
2023/09/16 10:41:16;;;;;;;4.50;4.00;;;;;;;21.86;68.73;99190.11;225718;1256;137365;-74
2023/09/16 10:46:20;;;;;;;4.60;3.70;;;;;;;21.95;68.38;99187.69;225689;1273;137684;-76
2023/09/16 10:51:24;;;;;;;3.90;3.50;;;;;;;22.09;68.32;99185.20;225645;1260;137687;-75
2023/09/16 10:56:32;;;;;;;6.40;4.80;;;;;;;22.28;68.16;99185.08;225878;1277;22543;-76
2023/09/16 11:01:39;;;;;;;4.10;3.80;;;;;;;22.40;67.59;99181.95;225490;1266;22667;-76
2023/09/16 11:06:48;;;;;;;4.10;3.60;;;;;;;22.52;67.13;99181.70;225072;1272;137143;-76
2023/09/16 11:11:51;;;;;;;3.80;3.50;;;;;;;22.65;66.72;99179.55;225256;1277;137448;-76
2023/09/16 11:16:56;;;;;;;4.20;3.80;;;;;;;22.71;66.11;99179.48;226377;1278;137455;-77
2023/09/16 11:21:58;;;;;;;4.30;3.80;;;;;;;22.82;66.34;99181.16;225728;1277;137359;-76
2023/09/16 11:27:00;;;;;;;4.70;4.30;;;;;;;23.00;66.40;99174.83;225793;1272;137530;-76
2023/09/16 11:32:02;;;;;;;4.50;3.90;;;;;;;23.14;65.73;99169.86;226072;1275;25312;-76
2023/09/16 11:37:10;;;;;;;4.10;3.70;;;;;;;23.26;65.58;99162.23;225996;1275;137730;-76
2023/09/16 11:42:12;;;;;;;4.70;4.00;;;;;;;23.34;65.19;99156.48;226098;1275;137410;-76
2023/09/16 11:47:16;;;;;;;4.50;4.00;;;;;;;23.39;64.86;99152.80;226111;1277;137544;-76
2023/09/16 11:52:18;;;;;;;4.30;3.90;;;;;;;23.46;64.55;99148.73;226096;1275;137785;-75
2023/09/16 11:57:20;;;;;;;4.80;4.10;;;;;;;23.53;64.45;99141.98;226066;1278;137349;-75
2023/09/16 12:02:22;;;;;;;3.80;3.50;;;;;;;23.58;64.22;99135.23;226157;1278;23762;-75
2023/09/16 12:07:25;;;;;;;4.70;4.30;;;;;;;23.60;64.02;99132.23;226011;1280;136881;-74
2023/09/16 12:12:27;;;;;;;4.00;3.70;;;;;;;23.61;63.94;99125.73;225925;1277;137156;-76
2023/09/16 12:17:29;;;;;;;4.50;4.00;;;;;;;23.64;63.89;99118.94;226077;1278;138969;-76
2023/09/16 12:22:31;;;;;;;4.60;4.10;;;;;;;23.71;63.83;99118.48;225941;1278;137582;-75
2023/09/16 12:27:33;;;;;;;4.20;3.80;;;;;;;23.80;63.69;99117.31;226029;1278;138677;-75
2023/09/16 12:32:36;;;;;;;4.30;3.90;;;;;;;23.86;63.23;99116.98;226059;1278;137383;-76
2023/09/16 12:37:39;;;;;;;4.70;4.30;;;;;;;23.91;63.04;99113.40;226243;1279;22551;-75
2023/09/16 12:42:42;;;;;;;4.50;4.00;;;;;;;23.96;62.67;99113.46;225998;1278;137840;-75
2023/09/16 12:47:44;;;;;;;4.20;3.80;;;;;;;23.93;62.18;99107.30;226048;1275;137315;-75
2023/09/16 12:52:47;;;;;;;4.20;3.90;;;;;;;23.91;62.10;99103.67;226098;1280;138825;-75
2023/09/16 12:57:51;;;;;;;4.50;4.10;;;;;;;23.92;62.11;99097.90;226051;1275;137472;-75
2023/09/16 13:02:53;;;;;;;4.20;3.80;;;;;;;23.98;61.90;99091.66;226035;1278;137359;-75
2023/09/16 13:07:58;;;;;;;4.40;4.10;;;;;;;24.01;61.54;99089.78;226144;1278;22955;-75
2023/09/16 13:13:00;;;;;;;4.10;3.70;;;;;;;24.14;61.73;99089.42;226055;1280;137842;-75
2023/09/16 13:18:04;;;;;;;3.70;3.40;;;;;;;24.29;61.49;99082.71;225841;1278;137290;-76
2023/09/16 13:23:08;;;;;;;5.10;4.00;;;;;;;24.34;61.16;99077.69;226029;1275;137526;-75
2023/09/16 13:28:13;;;;;;;4.20;3.90;;;;;;;24.43;60.90;99076.82;226027;1278;137461;-73
2023/09/16 13:33:16;;;;;;;4.40;3.50;;;;;;;24.47;60.54;99077.80;226037;1275;137729;-75
2023/09/16 13:38:18;;;;;;;4.80;3.60;;;;;;;24.50;60.62;99074.21;226138;1278;22605;-76
2023/09/16 13:43:19;;;;;;;4.10;3.80;;;;;;;24.52;60.67;99071.99;225960;1280;136987;-75
2023/09/16 13:48:23;;;;;;;4.00;3.70;;;;;;;24.56;60.39;99069.83;226075;1275;137316;-75
2023/09/16 13:53:25;;;;;;;4.20;3.90;;;;;;;24.63;60.16;99073.45;226013;1275;137557;-75
2023/09/16 13:58:27;;;;;;;4.30;3.80;;;;;;;24.66;60.17;99077.65;226080;1280;137552;-75
2023/09/16 14:03:29;;;;;;;4.20;3.90;;;;;;;24.68;60.18;99079.00;225997;1279;137549;-75
2023/09/16 14:08:32;;;;;;;4.20;3.80;;;;;;;24.74;60.19;99072.04;226063;1275;138374;-75
2023/09/16 14:13:33;;;;;;;4.20;3.80;;;;;;;24.79;59.97;99065.30;226180;1275;22560;-75
2023/09/16 14:18:36;;;;;;;4.60;4.20;;;;;;;24.82;60.21;99055.73;226052;1278;137021;-75
2023/09/16 14:23:37;;;;;;;4.80;4.40;;;;;;;24.81;60.28;99051.58;225928;1278;137543;-75
2023/09/16 14:28:39;;;;;;;4.70;4.30;;;;;;;24.81;60.38;99048.44;226074;1278;138493;-75
2023/09/16 14:33:41;;;;;;;5.30;4.20;;;;;;;24.77;60.10;99045.20;226106;1278;138979;-75
2023/09/16 14:38:43;;;;;;;4.10;3.80;;;;;;;24.77;60.43;99043.33;226050;1279;138443;-74
2023/09/16 14:43:45;;;;;;;4.70;4.30;;;;;;;24.71;60.17;99045.05;226145;1280;22542;-75
2023/09/16 14:48:47;;;;;;;5.50;4.90;;;;;;;24.58;59.84;99044.05;226106;1280;137196;-75
2023/09/16 14:53:50;;;;;;;4.90;4.50;;;;;;;24.45;59.98;99047.80;226102;1278;138283;-75
2023/09/16 14:58:52;;;;;;;4.70;4.30;;;;;;;24.39;60.21;99042.84;226095;1275;137484;-75
2023/09/16 15:03:54;;;;;;;4.70;4.30;;;;;;;24.32;60.25;99040.91;226088;1279;137613;-75
2023/09/16 15:08:56;;;;;;;4.70;4.30;;;;;;;24.24;60.28;99047.70;226072;1275;138142;-75
2023/09/16 15:13:58;;;;;;;4.90;4.50;;;;;;;24.13;60.23;99049.89;226148;1279;22472;-75
2023/09/16 15:19:00;;;;;;;4.90;4.50;;;;;;;24.03;60.16;99047.13;226082;1275;137344;-75
2023/09/16 15:24:01;;;;;;;5.20;4.70;;;;;;;23.92;60.38;99043.71;226102;1275;137306;-75
2023/09/16 15:29:04;;;;;;;5.40;4.90;;;;;;;23.83;60.78;99043.54;226109;1280;137949;-75
2023/09/16 15:34:05;;;;;;;5.70;5.20;;;;;;;23.74;60.88;99039.26;226141;1276;138415;-75
2023/09/16 15:39:07;;;;;;;5.10;4.60;;;;;;;23.63;60.99;99036.75;226067;1280;137371;-75
2023/09/16 15:44:09;;;;;;;4.80;4.30;;;;;;;23.54;61.25;99030.06;226226;1278;22564;-75
2023/09/16 15:49:11;;;;;;;5.30;4.40;;;;;;;23.44;61.45;99027.45;226081;1278;137169;-75
2023/09/16 15:54:13;;;;;;;5.50;4.90;;;;;;;23.25;61.67;99023.56;226079;1275;137210;-75
2023/09/16 15:59:15;;;;;;;6.80;6.00;;;;;;;23.09;62.16;99022.64;226071;1280;137374;-75
2023/09/16 16:04:18;;;;;;;4.70;4.30;;;;;;;22.94;62.43;99022.57;226101;1276;137726;-75
2023/09/16 16:09:21;;;;;;;5.20;4.70;;;;;;;22.77;62.74;99018.11;226090;1279;137415;-75
2023/09/16 16:14:23;;;;;;;5.30;4.60;;;;;;;22.57;63.05;99007.15;226194;1279;24647;-75
2023/09/16 16:19:25;;;;;;;5.50;5.10;;;;;;;22.38;63.52;99006.00;226044;1275;137016;-75
2023/09/16 16:24:27;;;;;;;6.00;5.40;;;;;;;22.24;64.10;99007.20;226037;1280;137401;-75
2023/09/16 16:29:29;;;;;;;5.90;5.30;;;;;;;22.05;64.46;99010.27;226035;1280;137477;-75
2023/09/16 16:34:31;;;;;;;5.70;5.10;;;;;;;21.87;65.01;99005.68;226064;1280;137730;-75
2023/09/16 16:39:34;;;;;;;5.20;4.70;;;;;;;21.68;65.40;99006.42;225993;1279;138035;-76
2023/09/16 16:44:35;;;;;;;5.40;4.40;;;;;;;21.51;65.77;99005.55;226069;1276;139105;-75
2023/09/16 16:49:38;;;;;;;5.10;4.60;;;;;;;21.29;65.94;99007.73;226148;1280;22544;-75
2023/09/16 16:54:40;;;;;;;4.80;4.40;;;;;;;21.11;66.06;99004.38;226052;1279;137769;-75
2023/09/16 16:59:42;;;;;;;5.00;4.50;;;;;;;20.99;66.28;99005.95;225996;1278;138273;-75
2023/09/16 17:04:44;;;;;;;5.00;4.40;;;;;;;20.82;66.40;99007.12;226081;1276;138067;-76
2023/09/16 17:09:46;;;;;;;6.50;4.30;;;;;;;20.62;66.61;99011.70;226050;1280;138097;-75
2023/09/16 17:14:48;;;;;;;5.30;4.80;;;;;;;20.46;66.84;99012.91;226024;1278;138204;-75
2023/09/16 17:19:52;;;;;;;5.20;4.70;;;;;;;20.31;66.99;99015.71;226167;1275;24388;-75
2023/09/16 17:24:54;;;;;;;6.80;5.10;;;;;;;20.12;67.21;99015.89;226057;1280;137719;-76
2023/09/16 17:29:56;;;;;;;6.00;5.40;;;;;;;19.92;67.52;99015.72;226028;1279;138222;-75
2023/09/16 17:34:59;;;;;;;6.70;5.10;;;;;;;19.73;68.05;99019.32;226091;1257;138247;-75
2023/09/16 17:40:04;;;;;;;8.10;5.70;;;;;;;19.56;68.42;99020.45;226126;1278;138062;-75
2023/09/16 17:45:07;;;;;;;6.20;5.60;;;;;;;19.39;68.84;99021.13;226069;1275;138066;-75
2023/09/16 17:50:09;;;;;;;7.20;5.30;;;;;;;19.24;69.10;99018.34;226239;1280;22540;-75
2023/09/16 17:55:12;;;;;;;7.50;5.60;;;;;;;19.08;69.56;99016.17;225966;1279;139017;-75
2023/09/16 18:00:14;;;;;;;6.60;5.70;;;;;;;18.93;69.83;99020.63;226091;1276;138882;-75
2023/09/16 18:05:19;;;;;;;7.60;5.80;;;;;;;18.79;70.31;99026.49;226093;1280;138091;-75
2023/09/16 18:10:21;;;;;;;7.40;6.30;;;;;;;18.67;70.63;99024.09;226102;1280;138167;-75
2023/09/16 18:15:26;;;;;;;6.30;4.90;;;;;;;18.57;70.97;99023.84;225940;1279;138242;-75
2023/09/16 18:20:28;;;;;;;7.10;6.20;;;;;;;18.49;71.46;99024.63;226187;1280;24143;-75
2023/09/16 18:25:31;;;;;;;6.70;5.90;;;;;;;18.42;71.72;99025.56;226146;1276;22608;-75
2023/09/16 18:30:33;;;;;;;7.80;7.00;;;;;;;18.35;72.09;99031.25;226037;1280;138966;-75
2023/09/16 18:35:36;;;;;;;8.60;6.70;;;;;;;18.29;72.42;99029.11;226053;1280;138637;-74
2023/09/16 18:40:39;;;;;;;8.70;7.80;;;;;;;18.25;72.87;99029.82;226073;1280;138178;-74
2023/09/16 18:45:42;;;;;;;9.70;8.10;;;;;;;18.22;73.20;99028.59;225941;1263;138152;-75
2023/09/16 18:50:44;;;;;;;9.90;7.90;;;;;;;18.17;73.52;99030.48;226025;1279;138189;-74
2023/09/16 18:55:46;;;;;;;9.60;7.80;;;;;;;18.13;73.85;99027.75;226169;1279;22543;-74
2023/09/16 19:00:48;;;;;;;9.20;8.30;;;;;;;18.09;74.33;99029.72;225901;1280;137809;-74
2023/09/16 19:05:51;;;;;;;9.00;8.10;;;;;;;18.06;74.83;99027.34;225958;1280;138102;-75
2023/09/16 19:10:53;;;;;;;9.80;8.70;;;;;;;18.06;75.30;99028.77;225906;1273;138341;-75
2023/09/16 19:15:58;;;;;;;9.20;8.30;;;;;;;18.06;75.62;99026.21;225982;1276;138090;-75
2023/09/16 19:21:00;;;;;;;9.90;8.50;;;;;;;18.07;76.19;99026.92;226060;1276;138041;-74
2023/09/16 19:26:03;;;;;;;9.50;8.60;;;;;;;18.10;76.58;99023.37;226125;1276;22545;-75
2023/09/16 19:31:05;;;;;;;10.80;8.70;;;;;;;18.12;76.91;99018.87;226012;1274;137695;-75
2023/09/16 19:36:07;;;;;;;9.70;8.40;;;;;;;18.16;76.99;99021.90;225989;1272;139165;-75
2023/09/16 19:41:08;;;;;;;10.80;9.60;;;;;;;18.21;77.41;99025.13;226045;1277;138072;-75
2023/09/16 19:46:11;;;;;;;10.00;9.00;;;;;;;18.25;77.77;99023.63;225953;1279;139233;-75
2023/09/16 19:51:13;;;;;;;9.50;8.60;;;;;;;18.27;77.59;99024.52;226021;1273;138440;-75
2023/09/16 19:56:15;;;;;;;10.80;8.60;;;;;;;18.23;77.87;99022.63;226117;1276;25344;-75
2023/09/16 20:01:17;;;;;;;9.90;8.90;;;;;;;18.17;78.21;99025.25;225899;1278;137976;-74
2023/09/16 20:06:19;;;;;;;11.00;8.60;;;;;;;18.11;78.27;99030.61;225951;1277;138173;-75
2023/09/16 20:11:21;;;;;;;11.20;9.30;;;;;;;18.02;78.45;99033.43;225835;1280;138192;-75
2023/09/16 20:16:24;;;;;;;10.60;9.50;;;;;;;17.91;78.61;99033.98;226007;1276;138497;-75
2023/09/16 20:21:27;;;;;;;11.80;9.90;;;;;;;17.79;78.81;99035.23;225900;1279;138316;-75
2023/09/16 20:26:29;;;;;;;10.40;9.10;;;;;;;17.69;78.98;99031.35;226097;1277;22545;-75
2023/09/16 20:31:32;;;;;;;10.90;9.30;;;;;;;17.56;79.21;99029.88;226100;1272;25392;-75
2023/09/16 20:36:35;;;;;;;11.30;9.80;;;;;;;17.48;79.86;99023.64;226032;1276;137889;-75
2023/09/16 20:41:37;;;;;;;13.40;10.10;;;;;;;17.45;80.19;99026.48;226040;1256;138543;-75
2023/09/16 20:46:39;;;;;;;13.00;10.60;;;;;;;17.44;80.46;99019.83;225989;1279;138792;-75
2023/09/16 20:51:41;;;;;;;12.40;9.70;;;;;;;17.45;80.71;99021.09;225984;1279;138572;-76
2023/09/16 20:56:43;;;;;;;12.00;10.70;;;;;;;17.42;80.63;99026.71;225957;1279;138408;-75
2023/09/16 21:01:46;;;;;;;12.30;10.70;;;;;;;17.36;80.80;99022.70;226126;1276;22549;-76
2023/09/16 21:06:49;;;;;;;11.90;10.70;;;;;;;17.29;80.85;99026.96;225970;1272;138936;-75
2023/09/16 21:11:56;;;;;;;12.30;11.00;;;;;;;17.23;81.34;99036.48;225983;1280;138216;-75
2023/09/16 21:16:58;;;;;;;11.40;10.20;;;;;;;17.14;81.33;99037.02;225985;1279;138426;-75
2023/09/16 21:22:00;;;;;;;12.70;11.10;;;;;;;17.07;81.44;99038.45;226008;1277;138441;-75
2023/09/16 21:27:03;;;;;;;15.00;11.80;;;;;;;17.04;81.92;99037.64;225899;1280;138445;-75
2023/09/16 21:32:05;;;;;;;12.90;10.80;;;;;;;17.07;82.03;99033.20;226099;1273;22548;-74
2023/09/16 21:37:07;;;;;;;12.90;11.40;;;;;;;17.10;82.28;99037.14;225978;1272;138217;-75
2023/09/16 21:42:09;;;;;;;12.20;11.00;;;;;;;17.12;82.49;99037.61;225929;1276;138347;-77
2023/09/16 21:47:16;;;;;;;12.70;11.40;;;;;;;17.11;82.41;99030.39;225947;1280;138424;-75
2023/09/16 21:52:18;;;;;;;17.60;12.70;;;;;;;17.08;82.45;99028.54;225936;1275;138523;-75
2023/09/16 21:57:20;;;;;;;14.90;11.90;;;;;;;17.03;82.50;99026.64;225909;1275;138594;-75
2023/09/16 22:02:22;;;;;;;15.00;11.80;;;;;;;16.97;82.53;99026.45;226033;1277;22594;-75
2023/09/16 22:07:24;;;;;;;13.90;12.40;;;;;;;16.92;82.77;99023.66;225922;1268;138254;-75
2023/09/16 22:12:26;;;;;;;13.70;12.30;;;;;;;16.95;83.03;99022.08;225952;1279;139977;-74
2023/09/16 22:17:28;;;;;;;15.50;13.40;;;;;;;16.94;82.89;99023.93;225901;1276;138538;-75
2023/09/16 22:22:31;;;;;;;14.60;12.90;;;;;;;16.93;83.03;99022.55;225894;1275;138460;-75
2023/09/16 22:27:37;;;;;;;13.90;12.40;;;;;;;16.90;83.05;99020.58;225903;1274;138619;-74
2023/09/16 22:32:39;;;;;;;14.80;13.00;;;;;;;16.86;83.08;99017.09;225884;1272;138503;-74
2023/09/16 22:37:41;;;;;;;14.60;13.10;;;;;;;16.81;83.25;99018.16;225927;1277;25282;-74
2023/09/16 22:42:43;;;;;;;14.20;12.70;;;;;;;16.75;83.37;99022.31;225912;1276;138107;-75
2023/09/16 22:47:45;;;;;;;16.30;12.70;;;;;;;16.66;83.52;99025.75;225924;1263;138597;-75
2023/09/16 22:52:47;;;;;;;14.70;12.90;;;;;;;16.58;83.61;99020.37;225926;1272;138608;-75
2023/09/16 22:57:49;;;;;;;16.30;13.80;;;;;;;16.48;83.87;99019.39;225928;1275;138374;-75
2023/09/16 23:02:51;;;;;;;15.30;13.80;;;;;;;16.40;84.00;99022.17;225953;1272;141197;-75
2023/09/16 23:07:54;;;;;;;16.30;13.00;;;;;;;16.32;84.15;99025.70;225969;1272;25328;-75
2023/09/16 23:13:02;;;;;;;16.00;14.30;;;;;;;16.25;84.27;99024.36;225771;1280;138249;-75